Wilton, ND (58579)

12:17 PM CST on February 07, 2016 (GMT -0600)
136 Ave NW | | Change Station
CLOSE
Current Station
Personal Weather Station
Location: Bismarck, ND
Elevation: 1932 ft
Nearby Weather Stations
Active Advisory: High Wind Warning Active Notice: Local Storm Report

Elev 1932 ft 46.95 °N, 100.83 °W | Updated 3 seconds ago

Overcast
Overcast
29.3 °F
Feels Like 14 °F
N
30.9
Wind Variable Wind from NNW
Gusts 37.4 mph

Today
High -- | Low -- °F
--% Chance of Precip.
Yesterday
High -- | Low -- °F
Precip. -- in
Pressure 29.99 in
Visibility 10.0 miles
Clouds Mostly Cloudy 3000 ft
Overcast 3700 ft
Windchill 14 °F
Dew Point 21 °F
Humidity 72%
Rainfall 0.00 in
Snow Depth Not available.
8:00 AM 5:54 PM
Waning Crescent, 1% visible
METAR KBIS 071752Z 32033G46KT 10SM BKN030 OVC037 01/M08 A2994 RMK AO2 PK WND 33054/1740 UPE1654 SLP154 P0000 60000 T00061078 10039 20006 53040
Pressure 29.99 in
Visibility 10.0 miles
Clouds Mostly Cloudy 3000 ft
Overcast 3700 ft
Windchill 14 °F
Dew Point 21 °F
Humidity 72%
Rainfall 0.00 in
Snow Depth Not available.
8:00 AM 5:54 PM
Waning Crescent, 1% visible
METAR KBIS 071752Z 32033G46KT 10SM BKN030 OVC037 01/M08 A2994 RMK AO2 PK WND 33054/1740 UPE1654 SLP154 P0000 60000 T00061078 10039 20006 53040

10-Day Weather Forecast

Almanac

Astronomy

Feb. 07, 2016 Rise Set
Actual Time
Civil Twilight
Nautical Twilight
Astronomical Twilight
Moon
Length of Visible Light
Length of Day
Tomorrow will be .
, % of the Moon is Illuminated

Today's Extremes

State Highs State Lows

Community

WunderPhotos

Upload Photos

1,891,274 photos uploaded!

WunderBlog® & News

Nearby

Air Quality

  Air Quality AQ Index Pollutant
Not available.

Snow Depth

Station Depth Elevation

Earthquake Activity

City Distance Mag. Time & Date
Minimum magnitude displayed is 2.5.

Coastal Water Temperatures

Place Temperature

Stations

Nearby Weather Stations

Station Location Temp. Windchill Dew Point Humidity Wind Precip. Elev Updated Type
                   

Watches & Warnings

High Wind Warning
Issued: 9:05 AM MST Feb. 7, 2016 – National Weather Service

... High Wind Warning remains in effect until 6 am CST /5 am MST/
Monday...

* timing... through tonight.

* Winds... northwest winds gusting up to 65 mph.

* Impacts... travel will be hazardous over western and central
North Dakota. Snow and blowing snow may reduce
visibilities... particularly through late this afternoon.

Precautionary/preparedness actions...

A High Wind Warning means a hazardous high wind event is expected
or occurring. Sustained wind speeds of at least 40 mph or gusts
of 58 mph or more can lead to property damage.



Jjs